Aérodrome :
LOGIN :

S'inscrire | Disclaimer

   EN    FR    IT 

 










Légende :    VFR   VFR Marginal   IFR   IFR Intensif   IFR Très Intensif
Visi : 
Plafond : 
>= 8 km
>= 3000ft
5 à 8 km
1000 à 3000 ft
1500m à 5 km
500 à 1000 ft
800 à 1500m
200 à 500 ft
< 800m
< 200 ft
Symboles :   Orages  Brouillard  Fortes neiges  Fortes précipitations  Vent > 20 kt
SIGMETs :   Divers  Orages  Givrage  Turbulence  Onde Orograph.  Cendres Volcan.







- Altitude de l'aérodrome : 287 ft
- Voir les cartes d'approche


LFRL - Lanveoc Poulmic

DERNIER METAR :
  • 191000Z AUTO 32008KT 9999 FEW025 SCT110 BKN140 15/11 Q1011

METARs EXPIRÉS :
  • 190930Z AUTO 34008KT 300V010 9999 FEW025 OVC110 15/10 Q1011
  • 190900Z AUTO 33008KT 310V020 CAVOK 15/10 Q1011
  • 190830Z AUTO 35008KT 310V030 9999 FEW015 OVC130 14/10 Q1011
  • 190800Z AUTO 34008KT 9999 FEW012 OVC130 13/10 Q1011
  • 190730Z AUTO 34009KT 320V030 9999 SCT011 OVC130 13/10 Q1011

Prévision TAF périmée.
Pas de NOTAMs connus pour ce terrain.



MET'MAP, la Météo Aéronautique d'un coup d'oeil ! - Copyright ORBIFLY Décembre 2007 - Disclaimer

ORBIFLY MET'MAP TEAM :

Programmation & Développement : Alexandra Zaïnal
Conception & Développement : Baudouin d'Aumeries
Co-Programmation & Développement : Marc-Olivier Méhu
Soutien technique & logistique : Manuel Goepfert

Contact : metmap@orbifly.com




SOURCES & CREDITS :

   NOAA